createdAt,value
2022-10-14T00:00:17.030Z,12.47
2022-10-14T00:01:17.024Z,12.55
2022-10-14T00:02:17.089Z,12.60
2022-10-14T00:03:17.001Z,12.61
2022-10-14T00:04:17.007Z,12.58
2022-10-14T00:05:16.987Z,12.55
2022-10-14T00:06:17.745Z,12.50
2022-10-14T00:07:16.985Z,12.64
2022-10-14T00:08:16.978Z,12.62
2022-10-14T00:09:16.967Z,12.58
2022-10-14T00:10:16.956Z,12.60
2022-10-14T00:11:16.957Z,12.58
2022-10-14T00:12:16.931Z,12.58
2022-10-14T00:13:16.925Z,12.72
2022-10-14T00:14:16.921Z,12.60
2022-10-14T00:15:16.907Z,12.62
2022-10-14T00:16:16.919Z,12.64
2022-10-14T00:17:16.896Z,12.68
2022-10-14T00:18:16.884Z,12.57
2022-10-14T00:19:16.874Z,12.62
2022-10-14T00:20:16.887Z,12.68
2022-10-14T00:21:16.875Z,12.67
2022-10-14T00:22:16.859Z,12.75
2022-10-14T00:23:16.853Z,12.73
2022-10-14T00:24:16.838Z,12.65
2022-10-14T00:25:16.850Z,12.78
2022-10-14T00:26:16.825Z,12.70
2022-10-14T00:27:16.818Z,12.76
2022-10-14T00:28:16.824Z,12.82
2022-10-14T00:30:16.510Z,12.79
2022-10-14T00:31:16.499Z,12.78
2022-10-14T00:32:16.499Z,12.72
2022-10-14T00:33:16.485Z,12.78
2022-10-14T00:34:16.474Z,12.85
2022-10-14T00:35:16.476Z,12.79
2022-10-14T00:36:16.457Z,12.85
2022-10-14T00:37:16.460Z,12.82
2022-10-14T00:38:16.440Z,12.90
2022-10-14T00:39:16.435Z,12.85
2022-10-14T00:40:16.426Z,12.82
2022-10-14T00:41:17.520Z,12.85
2022-10-14T00:42:17.508Z,12.70
2022-10-14T00:43:17.494Z,12.78
2022-10-14T00:44:17.488Z,12.87
2022-10-14T00:45:17.478Z,12.85
2022-10-14T00:46:17.480Z,12.86
2022-10-14T00:47:17.469Z,12.85
2022-10-14T00:48:17.451Z,12.87
2022-10-14T00:49:17.448Z,12.87
2022-10-14T00:50:17.452Z,12.79
2022-10-14T00:51:17.435Z,12.82
2022-10-14T00:52:17.419Z,12.79
2022-10-14T00:53:17.425Z,12.80
2022-10-14T00:54:17.407Z,12.75
2022-10-14T00:55:17.400Z,12.68
2022-10-14T00:56:17.392Z,12.76
2022-10-14T00:57:17.383Z,12.67
2022-10-14T00:58:17.386Z,12.68
2022-10-14T00:59:17.365Z,12.62
2022-10-14T01:00:17.383Z,12.70
2022-10-14T01:01:17.442Z,12.61
2022-10-14T01:02:17.347Z,12.61
2022-10-14T01:03:17.333Z,12.54
2022-10-14T01:04:17.327Z,12.58
2022-10-14T01:05:17.315Z,12.60
2022-10-14T01:06:17.313Z,12.58
2022-10-14T01:07:17.306Z,12.46
2022-10-14T01:08:17.297Z,12.47
2022-10-14T01:09:17.298Z,12.47
2022-10-14T01:10:17.285Z,12.47
2022-10-14T01:11:17.271Z,12.45
2022-10-14T01:12:28.600Z,12.43
2022-10-14T01:13:19.251Z,12.54
2022-10-14T01:14:17.487Z,12.54
2022-10-14T01:15:17.232Z,12.50
2022-10-14T01:16:17.234Z,12.54
2022-10-14T01:17:17.233Z,12.47
2022-10-14T01:18:17.206Z,12.55
2022-10-14T01:19:17.205Z,12.58
2022-10-14T01:20:17.187Z,12.49
2022-10-14T01:21:17.180Z,12.54
2022-10-14T01:22:22.064Z,12.61
2022-10-14T01:23:19.167Z,12.53
2022-10-14T01:24:17.154Z,12.60
2022-10-14T01:25:17.150Z,12.65
2022-10-14T01:26:17.979Z,12.62
2022-10-14T01:27:17.134Z,12.60
2022-10-14T01:28:17.149Z,12.60
2022-10-14T01:29:17.119Z,12.61
2022-10-14T01:30:17.117Z,12.62
2022-10-14T01:31:17.840Z,12.55
2022-10-14T01:32:17.090Z,12.53
2022-10-14T01:33:17.083Z,12.62
2022-10-14T01:34:17.078Z,12.72
2022-10-14T01:35:17.069Z,12.57
2022-10-14T01:36:17.057Z,12.60
2022-10-14T01:37:17.044Z,12.55
2022-10-14T01:38:17.059Z,12.62
2022-10-14T01:39:17.046Z,12.62
2022-10-14T01:40:17.882Z,12.54
2022-10-14T01:41:17.027Z,12.55
2022-10-14T01:42:17.005Z,12.53
2022-10-14T01:43:17.002Z,12.50
2022-10-14T01:44:16.995Z,12.55
2022-10-14T01:45:16.978Z,12.50
2022-10-14T01:46:16.993Z,12.46
2022-10-14T01:47:16.962Z,12.49
2022-10-14T01:48:16.956Z,12.60
2022-10-14T01:49:16.955Z,12.62
2022-10-14T01:50:16.935Z,12.65
2022-10-14T01:51:16.947Z,12.60
2022-10-14T01:52:16.923Z,12.60
2022-10-14T01:53:16.924Z,12.58
2022-10-14T01:54:16.928Z,12.61
2022-10-14T01:55:16.900Z,12.65
2022-10-14T01:56:16.915Z,12.57
2022-10-14T01:57:16.944Z,12.58
2022-10-14T01:58:16.877Z,12.60
2022-10-14T01:59:16.865Z,12.64
2022-10-14T02:00:16.853Z,12.60
2022-10-14T02:01:16.916Z,12.60
2022-10-14T02:02:16.847Z,12.49
2022-10-14T02:03:16.833Z,12.61
2022-10-14T02:04:16.827Z,12.62
2022-10-14T02:05:16.821Z,12.61
2022-10-14T02:06:16.811Z,12.61
2022-10-14T02:07:16.815Z,12.58
2022-10-14T02:08:16.797Z,12.60
2022-10-14T02:09:16.798Z,12.58
2022-10-14T02:10:16.783Z,12.62
2022-10-14T02:11:16.803Z,12.60
2022-10-14T02:12:17.395Z,12.73
2022-10-14T02:13:16.754Z,12.68
2022-10-14T02:14:16.746Z,12.70
2022-10-14T02:15:16.735Z,12.72
2022-10-14T02:16:16.740Z,12.78
2022-10-14T02:17:16.723Z,12.70
2022-10-14T02:18:16.718Z,12.72
2022-10-14T02:19:16.711Z,12.67
2022-10-14T02:20:16.721Z,12.70
2022-10-14T02:21:16.700Z,12.62
2022-10-14T02:22:16.687Z,12.50
2022-10-14T02:23:16.674Z,12.55
2022-10-14T02:24:16.664Z,12.47
2022-10-14T02:25:17.475Z,12.55
2022-10-14T02:26:16.653Z,12.61
2022-10-14T02:27:16.636Z,12.54
2022-10-14T02:28:16.690Z,12.64
2022-10-14T02:29:16.628Z,12.61
2022-10-14T02:30:16.619Z,12.57
2022-10-14T02:31:16.605Z,12.57
2022-10-14T02:32:17.476Z,12.49
2022-10-14T02:33:16.584Z,12.37
2022-10-14T02:34:17.483Z,12.46
2022-10-14T02:35:16.597Z,12.40
2022-10-14T02:36:16.562Z,12.45
2022-10-14T02:37:16.569Z,12.37
2022-10-14T02:38:16.547Z,12.53
2022-10-14T02:39:16.546Z,12.49
2022-10-14T02:40:16.536Z,12.49
2022-10-14T02:41:16.511Z,12.54
2022-10-14T02:42:17.510Z,12.53
2022-10-14T02:43:16.505Z,12.54
2022-10-14T02:44:16.495Z,12.50
2022-10-14T02:45:16.497Z,12.53
2022-10-14T02:46:16.478Z,12.53
2022-10-14T02:47:16.476Z,12.46
2022-10-14T02:48:16.471Z,12.53
2022-10-14T02:49:16.460Z,12.37
2022-10-14T02:50:16.466Z,12.49
2022-10-14T02:51:16.449Z,12.43
2022-10-14T02:52:16.440Z,12.55
2022-10-14T02:53:16.438Z,12.49
2022-10-14T02:54:16.415Z,12.58
2022-10-14T02:55:16.423Z,12.61
2022-10-14T02:56:16.395Z,12.55
2022-10-14T02:57:16.395Z,12.58
2022-10-14T02:58:16.394Z,12.60
2022-10-14T02:59:16.375Z,12.65
2022-10-14T03:00:16.501Z,12.61
2022-10-14T03:01:16.371Z,12.53
2022-10-14T03:02:16.420Z,12.61
2022-10-14T03:03:16.344Z,12.57
2022-10-14T03:04:16.332Z,12.68
2022-10-14T03:05:16.323Z,12.60
2022-10-14T03:06:16.313Z,12.58
2022-10-14T03:07:16.303Z,12.53
2022-10-14T03:08:16.310Z,12.58
2022-10-14T03:09:16.310Z,12.46
2022-10-14T03:10:16.293Z,12.45
2022-10-14T03:11:16.283Z,12.43
2022-10-14T03:12:16.265Z,12.53
2022-10-14T03:13:16.270Z,12.47
2022-10-14T03:14:16.259Z,12.55
2022-10-14T03:15:16.252Z,12.47
2022-10-14T03:16:16.239Z,12.55
2022-10-14T03:17:16.243Z,12.68
2022-10-14T03:18:16.222Z,12.57
2022-10-14T03:19:16.212Z,12.55
2022-10-14T03:20:16.199Z,12.55
2022-10-14T03:21:16.191Z,12.61
2022-10-14T03:22:16.184Z,12.55
2022-10-14T03:23:16.191Z,12.58
2022-10-14T03:24:16.168Z,12.49
2022-10-14T03:25:16.161Z,12.50
2022-10-14T03:26:16.161Z,12.49
2022-10-14T03:27:16.158Z,12.60
2022-10-14T03:28:16.164Z,12.60
2022-10-14T03:29:16.146Z,12.62
2022-10-14T03:30:16.134Z,12.58
2022-10-14T03:31:16.118Z,12.60
2022-10-14T03:32:16.119Z,12.62
2022-10-14T03:33:18.623Z,12.64
2022-10-14T03:34:16.106Z,12.62
2022-10-14T03:35:16.087Z,12.67
2022-10-14T03:36:16.084Z,12.68
2022-10-14T03:37:16.080Z,12.72
2022-10-14T03:38:16.060Z,12.75
2022-10-14T03:39:16.063Z,12.78
2022-10-14T03:40:16.060Z,12.85
2022-10-14T03:41:16.992Z,12.83
2022-10-14T03:42:16.030Z,12.86
2022-10-14T03:43:16.031Z,12.86
2022-10-14T03:44:16.020Z,12.87
2022-10-14T03:45:16.015Z,12.91
2022-10-14T03:46:15.997Z,12.94
2022-10-14T03:47:16.009Z,12.86
2022-10-14T03:48:15.992Z,12.86
2022-10-14T03:49:15.986Z,12.91
2022-10-14T03:50:15.973Z,12.86
2022-10-14T03:51:15.965Z,12.91
2022-10-14T03:52:15.964Z,12.87
2022-10-14T03:53:15.944Z,12.93
2022-10-14T03:54:16.032Z,12.87
2022-10-14T03:55:15.937Z,12.87
2022-10-14T03:56:15.928Z,12.93
2022-10-14T03:57:15.944Z,12.87
2022-10-14T03:58:15.911Z,13.03
2022-10-14T03:59:15.904Z,12.93
2022-10-14T04:00:15.896Z,12.93
2022-10-14T04:01:15.888Z,13.00
2022-10-14T04:02:15.873Z,12.98
2022-10-14T04:03:17.469Z,12.93
2022-10-14T04:04:15.871Z,13.09
2022-10-14T04:05:15.884Z,12.97
2022-10-14T04:06:15.843Z,13.01
2022-10-14T04:07:15.842Z,13.00
2022-10-14T04:08:15.846Z,13.04
2022-10-14T04:09:15.833Z,12.97
2022-10-14T04:10:15.828Z,13.04
2022-10-14T04:11:15.819Z,13.03
2022-10-14T04:12:15.807Z,12.95
2022-10-14T04:13:15.792Z,12.97
2022-10-14T04:14:15.790Z,13.05
2022-10-14T04:15:15.774Z,12.91
2022-10-14T04:16:15.764Z,13.03
2022-10-14T04:17:15.771Z,12.97
2022-10-14T04:18:15.751Z,12.93
2022-10-14T04:19:15.758Z,13.05
2022-10-14T04:20:15.767Z,12.95
2022-10-14T04:21:15.732Z,12.85
2022-10-14T04:22:15.720Z,13.05
2022-10-14T04:23:15.707Z,12.97
2022-10-14T04:24:15.710Z,12.97
2022-10-14T04:25:15.714Z,12.91
2022-10-14T04:26:15.698Z,12.97
2022-10-14T04:27:15.681Z,13.08
2022-10-14T04:28:15.733Z,12.93
2022-10-14T04:29:15.660Z,12.93
2022-10-14T04:30:15.661Z,12.91
2022-10-14T04:31:15.655Z,12.86
2022-10-14T04:32:15.634Z,12.91
2022-10-14T04:33:15.638Z,12.94
2022-10-14T04:34:15.638Z,12.93
2022-10-14T04:35:15.623Z,13.00
2022-10-14T04:36:15.601Z,12.98
2022-10-14T04:37:15.603Z,13.03
2022-10-14T04:38:17.505Z,13.11
2022-10-14T04:39:15.579Z,12.93
2022-10-14T04:40:15.593Z,12.94
2022-10-14T04:41:15.559Z,12.94
2022-10-14T04:42:15.549Z,12.97
2022-10-14T04:43:15.563Z,12.91
2022-10-14T04:44:15.538Z,12.93
2022-10-14T04:45:15.552Z,12.90
2022-10-14T04:46:15.554Z,12.87
2022-10-14T04:47:15.513Z,12.85
2022-10-14T04:48:15.513Z,12.93
2022-10-14T04:49:15.505Z,12.86
2022-10-14T04:50:15.553Z,12.87
2022-10-14T04:51:15.486Z,12.87
2022-10-14T04:52:15.481Z,12.97
2022-10-14T04:53:19.666Z,13.00
2022-10-14T04:54:16.462Z,12.91
2022-10-14T04:55:15.462Z,12.90
2022-10-14T04:56:16.441Z,12.94
2022-10-14T04:57:15.438Z,12.98
2022-10-14T04:58:15.422Z,12.97
2022-10-14T04:59:15.442Z,12.86
2022-10-14T05:00:15.420Z,12.94
2022-10-14T05:01:15.477Z,12.91
2022-10-14T05:02:15.506Z,12.94
2022-10-14T05:03:15.940Z,12.95
2022-10-14T05:04:15.378Z,12.91
2022-10-14T05:05:15.441Z,12.91
2022-10-14T05:06:15.369Z,12.91
2022-10-14T05:07:15.362Z,12.91
2022-10-14T05:08:15.367Z,12.87
2022-10-14T05:09:15.348Z,12.90
2022-10-14T05:10:15.348Z,12.90
2022-10-14T05:11:15.331Z,12.82
2022-10-14T05:12:15.308Z,12.85
2022-10-14T05:13:15.309Z,12.86
2022-10-14T05:14:15.300Z,12.87
2022-10-14T05:15:15.302Z,12.95
2022-10-14T05:16:15.295Z,12.93
2022-10-14T05:17:15.295Z,12.82
2022-10-14T05:18:15.278Z,12.87
2022-10-14T05:19:15.249Z,12.80
2022-10-14T05:20:15.261Z,12.90
2022-10-14T05:21:15.244Z,12.87
2022-10-14T05:22:15.226Z,12.91
2022-10-14T05:23:15.223Z,12.90
2022-10-14T05:24:15.214Z,12.93
2022-10-14T05:25:15.214Z,12.90
2022-10-14T05:26:15.213Z,12.90
2022-10-14T05:27:15.193Z,12.94
2022-10-14T05:28:15.262Z,12.93
2022-10-14T05:29:15.173Z,12.90
2022-10-14T05:30:15.182Z,12.95
2022-10-14T05:31:15.157Z,12.85
2022-10-14T05:32:15.171Z,12.91
2022-10-14T05:33:15.141Z,12.91
2022-10-14T05:34:15.132Z,12.91
2022-10-14T05:35:15.139Z,12.94
2022-10-14T05:36:15.122Z,12.97
2022-10-14T05:37:15.106Z,12.82
2022-10-14T05:38:15.116Z,12.94
2022-10-14T05:39:15.141Z,12.87
2022-10-14T05:40:15.088Z,12.90
2022-10-14T05:41:15.084Z,13.05
2022-10-14T05:42:15.057Z,13.01
2022-10-14T05:43:15.066Z,12.93
2022-10-14T05:44:15.050Z,13.01
2022-10-14T05:45:15.050Z,13.05
2022-10-14T05:46:15.039Z,13.04
2022-10-14T05:47:15.022Z,13.00
2022-10-14T05:48:16.038Z,13.09
2022-10-14T05:49:15.047Z,13.04
2022-10-14T05:50:15.030Z,13.11
2022-10-14T05:51:14.984Z,13.11
2022-10-14T05:52:14.983Z,13.12
2022-10-14T05:53:14.980Z,13.04
2022-10-14T05:54:14.965Z,13.09
2022-10-14T05:55:14.960Z,13.09
2022-10-14T05:56:14.950Z,13.11
2022-10-14T05:57:14.964Z,13.09
2022-10-14T05:58:14.943Z,13.18
2022-10-14T05:59:14.929Z,13.15
2022-10-14T06:00:14.940Z,13.08
2022-10-14T06:01:14.952Z,13.16
2022-10-14T06:02:14.940Z,13.16
2022-10-14T06:03:14.950Z,13.09
2022-10-14T06:04:14.923Z,13.13
2022-10-14T06:05:14.898Z,13.19
2022-10-14T06:06:14.863Z,13.11
2022-10-14T06:07:14.859Z,13.13
2022-10-14T06:08:14.884Z,13.09
2022-10-14T06:09:14.848Z,13.16
2022-10-14T06:10:14.855Z,13.13
2022-10-14T06:11:14.844Z,13.16
2022-10-14T06:12:14.832Z,13.20
2022-10-14T06:13:14.816Z,13.12
2022-10-14T06:14:14.803Z,13.25
2022-10-14T06:15:15.821Z,13.23
2022-10-14T06:16:14.794Z,13.28
2022-10-14T06:17:17.277Z,13.31
2022-10-14T06:18:14.768Z,13.25
2022-10-14T06:19:14.776Z,13.31
2022-10-14T06:20:14.746Z,13.33
2022-10-14T06:21:14.747Z,13.30
2022-10-14T06:22:14.755Z,13.37
2022-10-14T06:23:17.921Z,13.41
2022-10-14T06:24:15.831Z,13.37
2022-10-14T06:25:14.712Z,13.30
2022-10-14T06:26:14.711Z,13.30
2022-10-14T06:27:14.689Z,13.47
2022-10-14T06:28:14.778Z,13.57
2022-10-14T06:29:14.737Z,13.53
2022-10-14T06:30:14.671Z,13.50
2022-10-14T06:31:14.664Z,13.56
2022-10-14T06:32:14.649Z,13.59
2022-10-14T06:33:14.668Z,13.50
2022-10-14T06:34:14.639Z,13.54
2022-10-14T06:35:14.634Z,13.60
2022-10-14T06:36:14.641Z,13.68
2022-10-14T06:37:14.613Z,13.54
2022-10-14T06:38:14.614Z,13.57
2022-10-14T06:39:14.598Z,13.57
2022-10-14T06:40:14.582Z,13.59
2022-10-14T06:41:14.599Z,13.57
2022-10-14T06:42:15.563Z,13.59
2022-10-14T06:43:14.580Z,13.57
2022-10-14T06:44:14.550Z,13.60
2022-10-14T06:45:14.544Z,13.62
2022-10-14T06:46:14.547Z,13.65
2022-10-14T06:47:14.540Z,13.78
2022-10-14T06:48:14.516Z,13.65
2022-10-14T06:49:14.516Z,13.68
2022-10-14T06:50:14.513Z,13.71
2022-10-14T06:51:14.520Z,13.72
2022-10-14T06:52:15.944Z,13.71
2022-10-14T06:53:14.483Z,13.72
2022-10-14T06:54:15.489Z,13.75
2022-10-14T06:55:14.474Z,13.65
2022-10-14T06:56:14.457Z,13.75
2022-10-14T06:57:14.465Z,13.68
2022-10-14T06:58:14.444Z,13.70
2022-10-14T06:59:14.475Z,13.74
2022-10-14T07:00:14.426Z,13.72
2022-10-14T07:01:14.482Z,13.71
2022-10-14T07:02:14.461Z,13.67
2022-10-14T07:03:14.408Z,13.72
2022-10-14T07:04:14.405Z,13.75
2022-10-14T07:05:14.388Z,13.75
2022-10-14T07:06:14.382Z,13.87
2022-10-14T07:07:14.374Z,13.87
2022-10-14T07:08:15.584Z,13.90
2022-10-14T07:09:15.361Z,13.86
2022-10-14T07:10:14.336Z,13.85
2022-10-14T07:11:14.350Z,13.90
2022-10-14T07:12:14.323Z,13.90
2022-10-14T07:13:14.324Z,13.89
2022-10-14T07:14:14.386Z,13.89
2022-10-14T07:15:14.308Z,13.83
2022-10-14T07:16:14.305Z,13.90
2022-10-14T07:17:14.331Z,13.85
2022-10-14T07:18:14.347Z,13.93
2022-10-14T07:19:14.274Z,13.97
2022-10-14T07:20:14.268Z,14.00
2022-10-14T07:21:14.257Z,14.07
2022-10-14T07:22:14.982Z,14.08
2022-10-14T07:23:14.247Z,14.11
2022-10-14T07:24:15.092Z,14.11
2022-10-14T07:25:14.225Z,14.15
2022-10-14T07:26:14.231Z,14.08
2022-10-14T07:27:14.223Z,14.11
2022-10-14T07:28:14.308Z,14.17
2022-10-14T07:29:14.202Z,14.10
2022-10-14T07:30:16.779Z,14.18
2022-10-14T07:31:14.176Z,14.22
2022-10-14T07:32:14.168Z,14.20
2022-10-14T07:33:14.186Z,14.12
2022-10-14T07:34:14.160Z,14.18
2022-10-14T07:35:14.141Z,14.17
2022-10-14T07:36:16.082Z,14.17
2022-10-14T07:37:14.130Z,14.08
2022-10-14T07:38:14.136Z,13.96
2022-10-14T07:39:14.116Z,14.00
2022-10-14T07:40:14.114Z,14.05
2022-10-14T07:41:15.059Z,13.97
2022-10-14T07:42:14.114Z,14.05
2022-10-14T07:43:14.092Z,14.03
2022-10-14T07:44:14.989Z,14.10
2022-10-14T07:45:14.060Z,14.04
2022-10-14T07:46:14.577Z,14.04
2022-10-14T07:47:14.054Z,14.05
2022-10-14T07:48:17.051Z,14.11
2022-10-14T07:49:15.031Z,14.07
2022-10-14T07:50:14.030Z,14.17
2022-10-14T07:51:14.017Z,14.10
2022-10-14T07:52:14.007Z,14.03
2022-10-14T07:53:14.002Z,14.08
2022-10-14T07:54:13.991Z,14.05
2022-10-14T07:55:13.981Z,14.17
2022-10-14T07:56:13.981Z,14.17
2022-10-14T07:57:13.971Z,14.22
2022-10-14T07:58:13.969Z,14.18
2022-10-14T07:59:14.488Z,14.25
2022-10-14T08:00:13.948Z,14.29
2022-10-14T08:01:13.976Z,14.43
2022-10-14T08:02:13.940Z,14.51
2022-10-14T08:03:13.935Z,14.55
2022-10-14T08:04:13.939Z,14.53
2022-10-14T08:05:36.657Z,14.62
2022-10-14T08:06:15.895Z,14.55
2022-10-14T08:07:13.895Z,14.66
2022-10-14T08:08:13.890Z,14.63
2022-10-14T08:09:13.957Z,14.72
2022-10-14T08:10:13.872Z,14.70
2022-10-14T08:11:13.857Z,14.68
2022-10-14T08:12:13.845Z,14.78
2022-10-14T08:13:13.875Z,14.88
2022-10-14T08:14:13.847Z,14.91
2022-10-14T08:15:13.825Z,15.00
2022-10-14T08:16:13.822Z,15.02
2022-10-14T08:17:13.804Z,15.10
2022-10-14T08:18:13.804Z,15.15
2022-10-14T08:19:14.923Z,15.14
2022-10-14T08:20:14.859Z,15.15
2022-10-14T08:21:14.592Z,15.24
2022-10-14T08:22:13.773Z,15.27
2022-10-14T08:23:17.445Z,15.35
2022-10-14T08:24:15.842Z,15.37
2022-10-14T08:25:13.770Z,15.35
2022-10-14T08:26:13.724Z,15.47
2022-10-14T08:27:13.719Z,15.57
2022-10-14T08:28:13.713Z,15.51
2022-10-14T08:29:13.746Z,15.64
2022-10-14T08:30:13.710Z,15.65
2022-10-14T08:31:13.702Z,15.64
2022-10-14T08:32:13.729Z,15.70
2022-10-14T08:33:13.689Z,15.80
2022-10-14T08:34:13.668Z,15.75
2022-10-14T08:35:13.718Z,15.70
2022-10-14T08:36:14.110Z,15.64
2022-10-14T08:37:13.658Z,15.73
2022-10-14T08:38:14.583Z,15.72
2022-10-14T08:39:13.638Z,15.79
2022-10-14T08:40:13.632Z,15.77
2022-10-14T08:41:13.616Z,15.79
2022-10-14T08:42:13.618Z,15.92
2022-10-14T08:43:13.598Z,15.90
2022-10-14T08:44:13.596Z,15.88
2022-10-14T08:45:13.597Z,15.91
2022-10-14T08:46:13.679Z,15.91
2022-10-14T08:47:13.562Z,15.76
2022-10-14T08:48:13.577Z,15.79
2022-10-14T08:49:13.558Z,15.80
2022-10-14T08:50:13.547Z,15.92
2022-10-14T08:51:13.546Z,15.80
2022-10-14T08:52:13.529Z,15.94
2022-10-14T08:53:13.510Z,15.97
2022-10-14T08:54:13.528Z,15.84
2022-10-14T08:55:13.494Z,15.95
2022-10-14T08:56:14.562Z,15.92
2022-10-14T08:57:13.491Z,15.88
2022-10-14T08:58:13.609Z,15.72
2022-10-14T08:59:13.463Z,15.57
2022-10-14T09:00:13.519Z,15.54
2022-10-14T09:01:13.671Z,15.54
2022-10-14T09:02:13.456Z,15.72
2022-10-14T09:03:13.446Z,15.52
2022-10-14T09:04:13.517Z,15.59
2022-10-14T09:05:13.470Z,15.62
2022-10-14T09:06:13.405Z,15.73
2022-10-14T09:07:13.403Z,15.65
2022-10-14T09:08:13.387Z,15.72
2022-10-14T09:09:13.384Z,15.77
2022-10-14T09:10:14.016Z,15.91
2022-10-14T09:11:13.373Z,15.98
2022-10-14T09:12:13.365Z,15.91
2022-10-14T09:13:13.347Z,15.95
2022-10-14T09:14:13.341Z,15.98
2022-10-14T09:15:13.971Z,15.77
2022-10-14T09:16:13.326Z,15.82
2022-10-14T09:18:13.330Z,15.84
2022-10-14T09:19:13.310Z,15.79
2022-10-14T09:20:13.300Z,15.76
2022-10-14T09:21:22.730Z,15.82
2022-10-14T09:22:15.420Z,15.86
2022-10-14T09:23:13.268Z,15.73
2022-10-14T09:24:13.271Z,15.92
2022-10-14T09:25:13.325Z,15.92
2022-10-14T09:26:13.252Z,16.10
2022-10-14T09:27:16.090Z,16.24
2022-10-14T09:28:13.237Z,16.20
2022-10-14T09:29:13.229Z,16.21
2022-10-14T09:30:13.241Z,16.23
2022-10-14T09:31:13.215Z,16.23
2022-10-14T09:32:13.242Z,16.35
2022-10-14T09:33:13.223Z,16.41
2022-10-14T09:34:13.205Z,16.26
2022-10-14T09:35:13.196Z,16.32
2022-10-14T09:36:13.179Z,16.28
2022-10-14T09:37:13.254Z,16.33
2022-10-14T09:38:13.167Z,16.38
2022-10-14T09:39:13.159Z,16.29
2022-10-14T09:40:13.139Z,16.36
2022-10-14T09:41:13.144Z,16.31
2022-10-14T09:42:13.128Z,16.31
2022-10-14T09:43:13.113Z,16.13
2022-10-14T09:44:13.098Z,16.29
2022-10-14T09:45:13.332Z,16.33
2022-10-14T09:46:20.187Z,16.39
2022-10-14T09:47:13.225Z,16.43
2022-10-14T09:49:19.847Z,16.60
2022-10-14T09:50:19.889Z,16.57
2022-10-14T09:51:20.917Z,16.47
2022-10-14T09:52:20.934Z,16.51
2022-10-14T09:53:21.015Z,16.68
2022-10-14T09:54:20.899Z,16.69
2022-10-14T09:55:20.894Z,16.65
2022-10-14T09:56:21.775Z,16.58
2022-10-14T09:57:21.140Z,16.46
2022-10-14T09:58:53.266Z,16.41
2022-10-14T09:59:20.865Z,16.50
2022-10-14T10:00:20.858Z,16.46
2022-10-14T10:01:20.849Z,16.50
2022-10-14T10:02:20.850Z,16.53
2022-10-14T10:03:20.825Z,16.49
2022-10-14T10:04:20.812Z,16.56
2022-10-14T10:05:20.806Z,16.54
2022-10-14T10:06:22.319Z,16.53
2022-10-14T10:07:21.198Z,16.51
2022-10-14T10:08:20.791Z,16.60
2022-10-14T10:09:21.745Z,16.65
2022-10-14T10:10:20.770Z,16.75
2022-10-14T10:11:20.773Z,16.91
2022-10-14T10:12:20.763Z,17.06
2022-10-14T10:13:20.765Z,17.11
2022-10-14T10:14:20.766Z,16.91
2022-10-14T10:15:21.749Z,16.79
2022-10-14T10:16:20.725Z,16.66
2022-10-14T10:17:21.087Z,16.54
2022-10-14T10:18:20.716Z,16.56
2022-10-14T10:19:20.709Z,16.60
2022-10-14T10:20:21.321Z,16.64
2022-10-14T10:21:20.687Z,16.66
2022-10-14T10:22:21.241Z,16.65
2022-10-14T10:23:21.254Z,16.66
2022-10-14T10:24:20.656Z,16.65
2022-10-14T10:25:20.654Z,16.68
2022-10-14T10:26:20.671Z,16.41
2022-10-14T10:27:21.057Z,16.51
2022-10-14T10:28:20.702Z,16.54
2022-10-14T10:29:21.620Z,16.49
2022-10-14T10:30:20.646Z,16.54
2022-10-14T10:31:22.426Z,16.61
2022-10-14T10:32:20.811Z,16.64
2022-10-14T10:33:20.674Z,16.72
2022-10-14T10:34:21.322Z,16.69
2022-10-14T10:35:20.591Z,16.64
2022-10-14T10:36:20.569Z,16.61
2022-10-14T10:37:20.951Z,16.72
2022-10-14T10:38:20.552Z,16.81
2022-10-14T10:39:20.537Z,16.75
2022-10-14T10:40:20.543Z,16.71
2022-10-14T10:41:21.324Z,16.71
2022-10-14T10:42:20.749Z,16.71
2022-10-14T10:43:20.503Z,16.65
2022-10-14T10:44:20.546Z,16.65
2022-10-14T10:45:20.548Z,16.64
2022-10-14T10:46:21.281Z,16.71
2022-10-14T10:47:20.521Z,16.72
2022-10-14T10:48:21.524Z,16.91
2022-10-14T10:49:22.380Z,16.86
2022-10-14T10:50:20.513Z,17.01
2022-10-14T10:52:26.805Z,16.91
2022-10-14T10:53:27.612Z,16.78
2022-10-14T10:54:27.614Z,16.79
2022-10-14T10:55:27.586Z,16.71
2022-10-14T10:56:27.578Z,16.68
2022-10-14T10:57:27.574Z,16.68
2022-10-14T10:58:27.570Z,16.83
2022-10-14T10:59:29.152Z,16.84
2022-10-14T11:00:27.560Z,16.87
2022-10-14T11:01:27.571Z,16.94
2022-10-14T11:02:27.557Z,17.01
2022-10-14T11:03:27.534Z,17.12
2022-10-14T11:04:31.162Z,17.14
2022-10-14T11:05:27.511Z,17.19
2022-10-14T11:06:27.515Z,17.04
2022-10-14T11:07:28.217Z,16.90
2022-10-14T11:08:27.559Z,16.86
2022-10-14T11:09:27.518Z,16.83
2022-10-14T11:10:27.483Z,16.84
2022-10-14T11:11:27.479Z,16.76
2022-10-14T11:12:27.488Z,16.76
2022-10-14T11:13:29.486Z,16.75
2022-10-14T11:14:27.452Z,16.66
2022-10-14T11:15:27.440Z,16.64
2022-10-14T11:16:27.430Z,16.61
2022-10-14T11:17:27.462Z,16.58
2022-10-14T11:18:27.418Z,16.64
2022-10-14T11:19:27.400Z,16.54
2022-10-14T11:20:27.771Z,16.64
2022-10-14T11:21:27.388Z,16.69
2022-10-14T11:22:27.390Z,16.69
2022-10-14T11:23:27.389Z,16.75
2022-10-14T11:25:33.929Z,16.84
2022-10-14T11:27:33.922Z,16.96
2022-10-14T11:28:33.936Z,17.09
2022-10-14T11:29:33.888Z,17.19
2022-10-14T11:30:33.876Z,17.38
2022-10-14T11:31:33.867Z,17.59
2022-10-14T11:32:33.864Z,17.65
2022-10-14T11:33:38.873Z,17.82
2022-10-14T11:34:34.877Z,17.79
2022-10-14T11:35:36.651Z,17.87
2022-10-14T11:36:34.933Z,17.83
2022-10-14T11:37:35.566Z,17.86
2022-10-14T11:39:35.806Z,18.13
2022-10-14T11:40:34.883Z,18.34
2022-10-14T11:41:34.870Z,18.49
2022-10-14T11:42:34.865Z,18.31
2022-10-14T11:43:34.874Z,18.05
2022-10-14T11:45:34.846Z,17.90
2022-10-14T11:46:34.840Z,17.90
2022-10-14T11:47:34.857Z,17.90
2022-10-14T11:48:34.817Z,17.86
2022-10-14T11:49:34.807Z,17.65
2022-10-14T11:50:34.829Z,17.70
2022-10-14T11:51:35.783Z,17.78
2022-10-14T11:52:35.812Z,17.65
2022-10-14T11:53:35.611Z,17.65
2022-10-14T11:54:34.779Z,17.59
2022-10-14T11:55:34.774Z,17.67
2022-10-14T11:56:34.793Z,17.57
2022-10-14T11:57:34.759Z,17.48
2022-10-14T11:58:36.560Z,17.59
2022-10-14T11:59:34.768Z,17.57
2022-10-14T12:00:34.732Z,17.44
2022-10-14T12:01:37.377Z,17.36
2022-10-14T12:02:34.784Z,17.41
2022-10-14T12:03:34.703Z,17.39
2022-10-14T12:04:34.696Z,17.38
2022-10-14T12:05:35.573Z,17.19
2022-10-14T12:06:34.676Z,17.27
2022-10-14T12:07:34.672Z,17.46
2022-10-14T12:08:35.699Z,17.34
2022-10-14T12:10:34.643Z,17.24
2022-10-14T12:11:34.643Z,17.24
2022-10-14T12:12:34.643Z,17.30
2022-10-14T12:13:34.610Z,17.38
2022-10-14T12:14:34.633Z,17.48
2022-10-14T12:15:35.568Z,17.39
2022-10-14T12:16:34.588Z,17.46
2022-10-14T12:17:34.598Z,17.34
2022-10-14T12:19:34.594Z,17.09
2022-10-14T12:20:34.563Z,17.06
2022-10-14T12:21:34.552Z,16.96
2022-10-14T12:22:34.558Z,16.90
2022-10-14T12:23:34.566Z,16.90
2022-10-14T12:24:34.544Z,16.84
2022-10-14T12:25:34.575Z,16.76
2022-10-14T12:26:34.513Z,16.91
2022-10-14T12:27:37.649Z,16.94
2022-10-14T12:28:34.515Z,16.94
2022-10-14T12:29:34.505Z,16.93
2022-10-14T12:30:34.483Z,17.09
2022-10-14T12:31:35.148Z,17.24
2022-10-14T12:32:34.476Z,17.45
2022-10-14T12:33:34.463Z,17.48
2022-10-14T12:34:34.472Z,17.70
2022-10-14T12:35:34.443Z,17.87
2022-10-14T12:36:37.461Z,17.97
2022-10-14T12:37:35.060Z,18.13
2022-10-14T12:38:35.425Z,18.33
2022-10-14T12:39:34.424Z,18.31
2022-10-14T12:40:34.404Z,18.47
2022-10-14T12:41:34.411Z,18.50
2022-10-14T12:42:34.911Z,18.33
2022-10-14T12:43:34.413Z,18.52
2022-10-14T12:44:34.393Z,18.28
2022-10-14T12:45:34.433Z,18.34
2022-10-14T12:46:34.422Z,18.25
2022-10-14T12:47:34.364Z,18.38
2022-10-14T12:48:34.346Z,18.22
2022-10-14T12:49:34.345Z,18.18
2022-10-14T12:50:34.340Z,18.05
2022-10-14T12:51:35.158Z,18.10
2022-10-14T12:52:34.318Z,18.10
2022-10-14T12:53:34.329Z,18.29
2022-10-14T12:54:34.307Z,18.13
2022-10-14T12:55:34.315Z,18.01
2022-10-14T12:56:34.287Z,17.94
2022-10-14T12:57:37.355Z,17.87
2022-10-14T12:58:36.277Z,18.04
2022-10-14T12:59:34.267Z,18.00
2022-10-14T13:00:34.263Z,18.07
2022-10-14T13:01:36.452Z,17.97
2022-10-14T13:02:34.293Z,17.82